sensor_id;sensor_type;location;lat;lon;timestamp;temperature;humidity
78345;DHT22;67620;51.134;6.548;2023-05-07T00:00:16;15.40;81.70
78345;DHT22;67620;51.134;6.548;2023-05-07T00:02:44;15.40;81.70
78345;DHT22;67620;51.134;6.548;2023-05-07T00:05:10;15.40;81.80
78345;DHT22;67620;51.134;6.548;2023-05-07T00:07:35;15.40;81.70
78345;DHT22;67620;51.134;6.548;2023-05-07T00:10:02;15.30;81.80
78345;DHT22;67620;51.134;6.548;2023-05-07T00:12:27;15.40;81.70
78345;DHT22;67620;51.134;6.548;2023-05-07T00:14:55;15.40;81.80
78345;DHT22;67620;51.134;6.548;2023-05-07T00:17:20;15.40;81.70
78345;DHT22;67620;51.134;6.548;2023-05-07T00:19:46;15.30;81.80
78345;DHT22;67620;51.134;6.548;2023-05-07T00:22:11;15.30;81.90
78345;DHT22;67620;51.134;6.548;2023-05-07T00:24:37;15.30;82.10
78345;DHT22;67620;51.134;6.548;2023-05-07T00:27:02;15.30;81.90
78345;DHT22;67620;51.134;6.548;2023-05-07T00:29:28;15.30;81.90
78345;DHT22;67620;51.134;6.548;2023-05-07T00:31:53;15.30;81.90
78345;DHT22;67620;51.134;6.548;2023-05-07T00:34:20;15.30;81.90
78345;DHT22;67620;51.134;6.548;2023-05-07T00:36:45;15.30;82.10
78345;DHT22;67620;51.134;6.548;2023-05-07T00:39:11;15.30;82.10
78345;DHT22;67620;51.134;6.548;2023-05-07T00:41:36;15.30;82.20
78345;DHT22;67620;51.134;6.548;2023-05-07T00:44:02;15.30;82.40
78345;DHT22;67620;51.134;6.548;2023-05-07T00:46:27;15.30;82.40
78345;DHT22;67620;51.134;6.548;2023-05-07T00:48:53;15.30;82.20
78345;DHT22;67620;51.134;6.548;2023-05-07T00:51:19;15.30;82.20
78345;DHT22;67620;51.134;6.548;2023-05-07T00:53:45;15.30;82.10
78345;DHT22;67620;51.134;6.548;2023-05-07T00:56:11;15.20;82.20
78345;DHT22;67620;51.134;6.548;2023-05-07T00:58:37;15.20;82.20
78345;DHT22;67620;51.134;6.548;2023-05-07T01:01:02;15.20;82.10
78345;DHT22;67620;51.134;6.548;2023-05-07T01:03:28;15.20;82.20
78345;DHT22;67620;51.134;6.548;2023-05-07T01:05:54;15.20;82.10
78345;DHT22;67620;51.134;6.548;2023-05-07T01:08:20;15.20;82.20
78345;DHT22;67620;51.134;6.548;2023-05-07T01:10:47;15.20;82.00
78345;DHT22;67620;51.134;6.548;2023-05-07T01:13:12;15.20;81.90
78345;DHT22;67620;51.134;6.548;2023-05-07T01:15:39;15.20;81.90
78345;DHT22;67620;51.134;6.548;2023-05-07T01:18:07;15.20;82.00
78345;DHT22;67620;51.134;6.548;2023-05-07T01:20:32;15.20;82.10
78345;DHT22;67620;51.134;6.548;2023-05-07T01:22:58;15.20;82.30
78345;DHT22;67620;51.134;6.548;2023-05-07T01:25:24;15.20;82.20
78345;DHT22;67620;51.134;6.548;2023-05-07T01:27:50;15.20;82.50
78345;DHT22;67620;51.134;6.548;2023-05-07T01:30:16;15.10;82.60
78345;DHT22;67620;51.134;6.548;2023-05-07T01:32:56;15.10;82.70
78345;DHT22;67620;51.134;6.548;2023-05-07T01:35:27;15.10;82.50
78345;DHT22;67620;51.134;6.548;2023-05-07T01:37:54;15.10;82.40
78345;DHT22;67620;51.134;6.548;2023-05-07T01:40:20;15.10;82.20
78345;DHT22;67620;51.134;6.548;2023-05-07T01:42:46;15.10;82.00
78345;DHT22;67620;51.134;6.548;2023-05-07T01:45:13;15.00;82.20
78345;DHT22;67620;51.134;6.548;2023-05-07T01:47:39;15.10;82.10
78345;DHT22;67620;51.134;6.548;2023-05-07T01:50:08;15.00;82.00
78345;DHT22;67620;51.134;6.548;2023-05-07T01:52:36;15.00;82.20
78345;DHT22;67620;51.134;6.548;2023-05-07T01:55:03;15.00;82.10
78345;DHT22;67620;51.134;6.548;2023-05-07T01:57:28;15.00;82.20
78345;DHT22;67620;51.134;6.548;2023-05-07T01:59:54;15.00;82.10
78345;DHT22;67620;51.134;6.548;2023-05-07T02:02:19;15.00;82.10
78345;DHT22;67620;51.134;6.548;2023-05-07T02:04:45;15.00;82.00
78345;DHT22;67620;51.134;6.548;2023-05-07T02:07:10;15.00;82.10
78345;DHT22;67620;51.134;6.548;2023-05-07T02:09:35;15.00;82.30
78345;DHT22;67620;51.134;6.548;2023-05-07T02:12:01;15.00;82.50
78345;DHT22;67620;51.134;6.548;2023-05-07T02:14:26;15.00;82.30
78345;DHT22;67620;51.134;6.548;2023-05-07T02:16:52;14.90;82.70
78345;DHT22;67620;51.134;6.548;2023-05-07T02:19:17;14.90;82.60
78345;DHT22;67620;51.134;6.548;2023-05-07T02:21:43;14.90;82.40
78345;DHT22;67620;51.134;6.548;2023-05-07T02:24:09;15.00;82.30
78345;DHT22;67620;51.134;6.548;2023-05-07T02:26:34;15.00;82.20
78345;DHT22;67620;51.134;6.548;2023-05-07T02:29:00;14.90;82.10
78345;DHT22;67620;51.134;6.548;2023-05-07T02:31:25;14.90;82.00
78345;DHT22;67620;51.134;6.548;2023-05-07T02:33:51;14.90;81.90
78345;DHT22;67620;51.134;6.548;2023-05-07T02:36:16;14.90;81.90
78345;DHT22;67620;51.134;6.548;2023-05-07T02:38:41;14.90;81.80
78345;DHT22;67620;51.134;6.548;2023-05-07T02:41:07;14.80;82.00
78345;DHT22;67620;51.134;6.548;2023-05-07T02:43:32;14.80;82.20
78345;DHT22;67620;51.134;6.548;2023-05-07T02:46:06;14.80;82.70
78345;DHT22;67620;51.134;6.548;2023-05-07T02:48:32;14.80;82.70
78345;DHT22;67620;51.134;6.548;2023-05-07T02:50:57;14.70;83.00
78345;DHT22;67620;51.134;6.548;2023-05-07T02:53:23;14.70;83.10
78345;DHT22;67620;51.134;6.548;2023-05-07T02:55:54;14.70;83.20
78345;DHT22;67620;51.134;6.548;2023-05-07T02:58:20;14.70;83.10
78345;DHT22;67620;51.134;6.548;2023-05-07T03:00:45;14.70;82.80
78345;DHT22;67620;51.134;6.548;2023-05-07T03:03:11;14.80;82.60
78345;DHT22;67620;51.134;6.548;2023-05-07T03:05:37;14.70;82.60
78345;DHT22;67620;51.134;6.548;2023-05-07T03:08:02;14.70;82.60
78345;DHT22;67620;51.134;6.548;2023-05-07T03:10:29;14.70;82.90
78345;DHT22;67620;51.134;6.548;2023-05-07T03:12:54;14.70;82.90
78345;DHT22;67620;51.134;6.548;2023-05-07T03:15:20;14.70;83.20
78345;DHT22;67620;51.134;6.548;2023-05-07T03:17:47;14.60;83.30
78345;DHT22;67620;51.134;6.548;2023-05-07T03:20:12;14.70;83.00
78345;DHT22;67620;51.134;6.548;2023-05-07T03:22:38;14.70;82.70
78345;DHT22;67620;51.134;6.548;2023-05-07T03:25:04;14.70;82.50
78345;DHT22;67620;51.134;6.548;2023-05-07T03:27:30;14.70;82.60
78345;DHT22;67620;51.134;6.548;2023-05-07T03:29:55;14.70;82.50
78345;DHT22;67620;51.134;6.548;2023-05-07T03:32:21;14.70;82.30
78345;DHT22;67620;51.134;6.548;2023-05-07T03:34:46;14.70;82.10
78345;DHT22;67620;51.134;6.548;2023-05-07T03:37:12;14.70;82.20
78345;DHT22;67620;51.134;6.548;2023-05-07T03:39:37;14.70;82.00
78345;DHT22;67620;51.134;6.548;2023-05-07T03:42:03;14.70;81.90
78345;DHT22;67620;51.134;6.548;2023-05-07T03:44:28;14.70;81.80
78345;DHT22;67620;51.134;6.548;2023-05-07T03:46:54;14.70;81.70
78345;DHT22;67620;51.134;6.548;2023-05-07T03:49:20;14.60;81.80
78345;DHT22;67620;51.134;6.548;2023-05-07T03:51:46;14.60;81.90
78345;DHT22;67620;51.134;6.548;2023-05-07T03:54:11;14.60;81.90
78345;DHT22;67620;51.134;6.548;2023-05-07T03:56:37;14.60;82.00
78345;DHT22;67620;51.134;6.548;2023-05-07T03:59:02;14.60;81.90
78345;DHT22;67620;51.134;6.548;2023-05-07T04:01:28;14.60;81.70
78345;DHT22;67620;51.134;6.548;2023-05-07T04:03:53;14.60;81.80
78345;DHT22;67620;51.134;6.548;2023-05-07T04:06:19;14.60;81.80
78345;DHT22;67620;51.134;6.548;2023-05-07T04:08:45;14.60;81.80
78345;DHT22;67620;51.134;6.548;2023-05-07T04:11:10;14.50;82.30
78345;DHT22;67620;51.134;6.548;2023-05-07T04:13:36;14.40;82.30
78345;DHT22;67620;51.134;6.548;2023-05-07T04:16:02;14.50;82.50
78345;DHT22;67620;51.134;6.548;2023-05-07T04:18:28;14.50;82.40
78345;DHT22;67620;51.134;6.548;2023-05-07T04:20:54;14.50;82.50
78345;DHT22;67620;51.134;6.548;2023-05-07T04:23:20;14.50;82.40
78345;DHT22;67620;51.134;6.548;2023-05-07T04:25:45;14.60;82.40
78345;DHT22;67620;51.134;6.548;2023-05-07T04:28:11;14.50;82.50
78345;DHT22;67620;51.134;6.548;2023-05-07T04:30:38;14.50;82.70
78345;DHT22;67620;51.134;6.548;2023-05-07T04:33:03;14.50;82.70
78345;DHT22;67620;51.134;6.548;2023-05-07T04:35:29;14.50;82.80
78345;DHT22;67620;51.134;6.548;2023-05-07T04:37:54;14.50;83.30
78345;DHT22;67620;51.134;6.548;2023-05-07T04:40:20;14.50;83.30
78345;DHT22;67620;51.134;6.548;2023-05-07T04:42:45;14.50;83.50
78345;DHT22;67620;51.134;6.548;2023-05-07T04:45:11;14.50;83.30
78345;DHT22;67620;51.134;6.548;2023-05-07T04:47:37;14.50;83.30
78345;DHT22;67620;51.134;6.548;2023-05-07T04:50:03;14.50;83.30
78345;DHT22;67620;51.134;6.548;2023-05-07T04:52:29;14.50;83.10
78345;DHT22;67620;51.134;6.548;2023-05-07T04:54:54;14.50;83.40
78345;DHT22;67620;51.134;6.548;2023-05-07T04:57:20;14.50;83.40
78345;DHT22;67620;51.134;6.548;2023-05-07T04:59:46;14.50;83.60
78345;DHT22;67620;51.134;6.548;2023-05-07T05:02:12;14.50;83.40
78345;DHT22;67620;51.134;6.548;2023-05-07T05:04:37;14.50;83.20
78345;DHT22;67620;51.134;6.548;2023-05-07T05:07:03;14.50;83.30
78345;DHT22;67620;51.134;6.548;2023-05-07T05:09:31;14.50;83.40
78345;DHT22;67620;51.134;6.548;2023-05-07T05:11:56;14.50;83.50
78345;DHT22;67620;51.134;6.548;2023-05-07T05:14:22;14.50;83.50
78345;DHT22;67620;51.134;6.548;2023-05-07T05:16:47;14.60;83.50
78345;DHT22;67620;51.134;6.548;2023-05-07T05:19:13;14.60;83.30
78345;DHT22;67620;51.134;6.548;2023-05-07T05:21:38;14.60;83.40
78345;DHT22;67620;51.134;6.548;2023-05-07T05:24:04;14.60;83.50
78345;DHT22;67620;51.134;6.548;2023-05-07T05:26:29;14.60;83.60
78345;DHT22;67620;51.134;6.548;2023-05-07T05:28:55;14.60;83.60
78345;DHT22;67620;51.134;6.548;2023-05-07T05:31:20;14.60;83.60
78345;DHT22;67620;51.134;6.548;2023-05-07T05:33:46;14.60;84.00
78345;DHT22;67620;51.134;6.548;2023-05-07T05:36:12;14.60;84.20
78345;DHT22;67620;51.134;6.548;2023-05-07T05:38:38;14.60;84.00
78345;DHT22;67620;51.134;6.548;2023-05-07T05:41:04;14.60;84.30
78345;DHT22;67620;51.134;6.548;2023-05-07T05:43:30;14.60;84.20
78345;DHT22;67620;51.134;6.548;2023-05-07T05:45:56;14.60;83.80
78345;DHT22;67620;51.134;6.548;2023-05-07T05:48:21;14.70;83.60
78345;DHT22;67620;51.134;6.548;2023-05-07T05:50:47;14.70;83.60
78345;DHT22;67620;51.134;6.548;2023-05-07T05:53:13;14.70;83.70
78345;DHT22;67620;51.134;6.548;2023-05-07T05:55:38;14.70;83.70
78345;DHT22;67620;51.134;6.548;2023-05-07T05:58:04;14.70;83.70
78345;DHT22;67620;51.134;6.548;2023-05-07T06:00:30;14.70;83.70
78345;DHT22;67620;51.134;6.548;2023-05-07T06:02:55;14.70;83.70
78345;DHT22;67620;51.134;6.548;2023-05-07T06:05:21;14.80;83.50
78345;DHT22;67620;51.134;6.548;2023-05-07T06:07:46;14.80;83.50
78345;DHT22;67620;51.134;6.548;2023-05-07T06:10:12;14.80;83.40
78345;DHT22;67620;51.134;6.548;2023-05-07T06:12:37;14.80;83.60
78345;DHT22;67620;51.134;6.548;2023-05-07T06:15:04;14.90;83.20
78345;DHT22;67620;51.134;6.548;2023-05-07T06:17:29;14.80;83.10
78345;DHT22;67620;51.134;6.548;2023-05-07T06:19:55;14.90;83.20
78345;DHT22;67620;51.134;6.548;2023-05-07T06:22:21;14.90;83.30
78345;DHT22;67620;51.134;6.548;2023-05-07T06:24:46;15.00;83.20
78345;DHT22;67620;51.134;6.548;2023-05-07T06:27:12;15.00;83.30
78345;DHT22;67620;51.134;6.548;2023-05-07T06:29:38;15.10;82.70
78345;DHT22;67620;51.134;6.548;2023-05-07T06:32:08;15.10;82.40
78345;DHT22;67620;51.134;6.548;2023-05-07T06:34:33;15.10;82.10
78345;DHT22;67620;51.134;6.548;2023-05-07T06:36:59;15.10;82.80
78345;DHT22;67620;51.134;6.548;2023-05-07T06:39:24;15.10;82.60
78345;DHT22;67620;51.134;6.548;2023-05-07T06:41:49;15.10;82.90
78345;DHT22;67620;51.134;6.548;2023-05-07T06:44:15;15.10;82.30
78345;DHT22;67620;51.134;6.548;2023-05-07T06:46:41;15.20;82.00
78345;DHT22;67620;51.134;6.548;2023-05-07T06:49:07;15.20;82.00
78345;DHT22;67620;51.134;6.548;2023-05-07T06:51:33;15.20;82.30
78345;DHT22;67620;51.134;6.548;2023-05-07T06:53:59;15.30;82.20
78345;DHT22;67620;51.134;6.548;2023-05-07T06:56:24;15.30;81.80
78345;DHT22;67620;51.134;6.548;2023-05-07T06:58:50;15.30;81.40
78345;DHT22;67620;51.134;6.548;2023-05-07T07:01:15;15.40;81.80
78345;DHT22;67620;51.134;6.548;2023-05-07T07:03:41;15.40;81.40
78345;DHT22;67620;51.134;6.548;2023-05-07T07:06:07;15.40;81.70
78345;DHT22;67620;51.134;6.548;2023-05-07T07:08:32;15.50;81.50
78345;DHT22;67620;51.134;6.548;2023-05-07T07:10:58;15.50;81.40
78345;DHT22;67620;51.134;6.548;2023-05-07T07:13:23;15.60;81.50
78345;DHT22;67620;51.134;6.548;2023-05-07T07:15:49;15.60;81.60
78345;DHT22;67620;51.134;6.548;2023-05-07T07:18:15;15.60;81.20
78345;DHT22;67620;51.134;6.548;2023-05-07T07:20:40;15.60;81.20
78345;DHT22;67620;51.134;6.548;2023-05-07T07:23:06;15.70;81.10
78345;DHT22;67620;51.134;6.548;2023-05-07T07:25:31;15.70;82.00
78345;DHT22;67620;51.134;6.548;2023-05-07T07:27:57;15.70;80.90
78345;DHT22;67620;51.134;6.548;2023-05-07T07:30:23;15.80;81.60
78345;DHT22;67620;51.134;6.548;2023-05-07T07:32:48;15.80;81.70
78345;DHT22;67620;51.134;6.548;2023-05-07T07:35:14;15.90;81.30
78345;DHT22;67620;51.134;6.548;2023-05-07T07:37:39;15.90;81.10
78345;DHT22;67620;51.134;6.548;2023-05-07T07:40:05;16.00;81.80
78345;DHT22;67620;51.134;6.548;2023-05-07T07:42:30;16.00;81.90
78345;DHT22;67620;51.134;6.548;2023-05-07T07:44:56;16.10;81.60
78345;DHT22;67620;51.134;6.548;2023-05-07T07:47:22;16.10;81.10
78345;DHT22;67620;51.134;6.548;2023-05-07T07:49:48;16.10;81.70
78345;DHT22;67620;51.134;6.548;2023-05-07T07:52:13;16.20;81.50
78345;DHT22;67620;51.134;6.548;2023-05-07T07:54:39;16.20;81.20
78345;DHT22;67620;51.134;6.548;2023-05-07T07:57:05;16.30;81.00
78345;DHT22;67620;51.134;6.548;2023-05-07T07:59:30;16.30;80.30
78345;DHT22;67620;51.134;6.548;2023-05-07T08:01:56;16.40;80.50
78345;DHT22;67620;51.134;6.548;2023-05-07T08:04:22;16.40;80.30
78345;DHT22;67620;51.134;6.548;2023-05-07T08:06:47;16.40;81.00
78345;DHT22;67620;51.134;6.548;2023-05-07T08:09:13;16.50;80.80
78345;DHT22;67620;51.134;6.548;2023-05-07T08:11:38;16.50;80.50
78345;DHT22;67620;51.134;6.548;2023-05-07T08:14:04;16.50;80.00
78345;DHT22;67620;51.134;6.548;2023-05-07T08:16:30;16.50;79.90
78345;DHT22;67620;51.134;6.548;2023-05-07T08:18:55;16.60;80.10
78345;DHT22;67620;51.134;6.548;2023-05-07T08:21:22;16.60;80.40
78345;DHT22;67620;51.134;6.548;2023-05-07T08:23:47;16.70;80.80
78345;DHT22;67620;51.134;6.548;2023-05-07T08:26:13;16.70;79.90
78345;DHT22;67620;51.134;6.548;2023-05-07T08:28:38;16.80;79.80
78345;DHT22;67620;51.134;6.548;2023-05-07T08:31:05;16.80;79.40
78345;DHT22;67620;51.134;6.548;2023-05-07T08:33:30;16.80;78.90
78345;DHT22;67620;51.134;6.548;2023-05-07T08:35:56;16.90;77.90
78345;DHT22;67620;51.134;6.548;2023-05-07T08:38:21;16.90;77.80
78345;DHT22;67620;51.134;6.548;2023-05-07T08:40:47;17.00;77.30
78345;DHT22;67620;51.134;6.548;2023-05-07T08:43:13;17.10;77.80
78345;DHT22;67620;51.134;6.548;2023-05-07T08:45:40;17.10;77.40
78345;DHT22;67620;51.134;6.548;2023-05-07T08:48:09;17.20;78.10
78345;DHT22;67620;51.134;6.548;2023-05-07T08:50:39;17.30;77.80
78345;DHT22;67620;51.134;6.548;2023-05-07T08:53:05;17.30;76.00
78345;DHT22;67620;51.134;6.548;2023-05-07T08:55:30;17.30;76.30
78345;DHT22;67620;51.134;6.548;2023-05-07T08:57:56;17.40;76.70
78345;DHT22;67620;51.134;6.548;2023-05-07T09:00:21;17.40;77.10
78345;DHT22;67620;51.134;6.548;2023-05-07T09:02:47;17.50;77.00
78345;DHT22;67620;51.134;6.548;2023-05-07T09:05:13;17.50;76.70
78345;DHT22;67620;51.134;6.548;2023-05-07T09:07:38;17.50;76.00
78345;DHT22;67620;51.134;6.548;2023-05-07T09:10:05;17.50;75.60
78345;DHT22;67620;51.134;6.548;2023-05-07T09:12:31;17.60;75.50
78345;DHT22;67620;51.134;6.548;2023-05-07T09:14:57;17.70;75.90
78345;DHT22;67620;51.134;6.548;2023-05-07T09:17:22;17.80;75.40
78345;DHT22;67620;51.134;6.548;2023-05-07T09:19:48;17.90;75.60
78345;DHT22;67620;51.134;6.548;2023-05-07T09:22:13;17.90;77.00
78345;DHT22;67620;51.134;6.548;2023-05-07T09:24:39;18.00;75.40
78345;DHT22;67620;51.134;6.548;2023-05-07T09:27:05;18.00;75.80
78345;DHT22;67620;51.134;6.548;2023-05-07T09:29:33;18.10;76.40
78345;DHT22;67620;51.134;6.548;2023-05-07T09:32:06;18.20;74.80
78345;DHT22;67620;51.134;6.548;2023-05-07T09:34:32;18.30;75.30
78345;DHT22;67620;51.134;6.548;2023-05-07T09:37:02;18.30;72.90
78345;DHT22;67620;51.134;6.548;2023-05-07T09:39:42;18.30;72.30
78345;DHT22;67620;51.134;6.548;2023-05-07T09:42:07;18.30;72.30
78345;DHT22;67620;51.134;6.548;2023-05-07T09:44:34;18.30;72.40
78345;DHT22;67620;51.134;6.548;2023-05-07T09:47:00;18.30;69.80
78345;DHT22;67620;51.134;6.548;2023-05-07T09:49:28;18.30;72.40
78345;DHT22;67620;51.134;6.548;2023-05-07T09:51:55;18.40;71.10
78345;DHT22;67620;51.134;6.548;2023-05-07T09:54:22;18.50;70.30
78345;DHT22;67620;51.134;6.548;2023-05-07T09:56:48;18.50;70.60
78345;DHT22;67620;51.134;6.548;2023-05-07T09:59:15;18.60;70.70
78345;DHT22;67620;51.134;6.548;2023-05-07T10:01:42;18.60;68.40
78345;DHT22;67620;51.134;6.548;2023-05-07T10:04:08;18.70;68.50
78345;DHT22;67620;51.134;6.548;2023-05-07T10:06:35;18.70;68.00
78345;DHT22;67620;51.134;6.548;2023-05-07T10:09:02;18.70;68.00
78345;DHT22;67620;51.134;6.548;2023-05-07T10:11:28;18.70;68.00
78345;DHT22;67620;51.134;6.548;2023-05-07T10:13:54;18.70;68.40
78345;DHT22;67620;51.134;6.548;2023-05-07T10:16:21;18.70;67.30
78345;DHT22;67620;51.134;6.548;2023-05-07T10:18:47;18.70;68.50
78345;DHT22;67620;51.134;6.548;2023-05-07T10:21:19;18.80;67.00
78345;DHT22;67620;51.134;6.548;2023-05-07T10:23:59;18.80;67.50
78345;DHT22;67620;51.134;6.548;2023-05-07T10:26:27;18.80;66.90
78345;DHT22;67620;51.134;6.548;2023-05-07T10:28:59;18.90;67.00
78345;DHT22;67620;51.134;6.548;2023-05-07T10:34:26;19.00;65.80
78345;DHT22;67620;51.134;6.548;2023-05-07T10:36:52;19.10;66.00
78345;DHT22;67620;51.134;6.548;2023-05-07T10:39:20;19.10;64.90
78345;DHT22;67620;51.134;6.548;2023-05-07T10:41:47;19.10;64.40
78345;DHT22;67620;51.134;6.548;2023-05-07T10:44:28;19.20;64.40
78345;DHT22;67620;51.134;6.548;2023-05-07T10:47:11;19.30;64.30
78345;DHT22;67620;51.134;6.548;2023-05-07T10:52:31;19.30;66.40
78345;DHT22;67620;51.134;6.548;2023-05-07T10:57:42;19.40;64.20
78345;DHT22;67620;51.134;6.548;2023-05-07T11:03:04;19.50;64.50
78345;DHT22;67620;51.134;6.548;2023-05-07T11:05:32;19.50;62.90
78345;DHT22;67620;51.134;6.548;2023-05-07T11:08:00;19.50;63.40
78345;DHT22;67620;51.134;6.548;2023-05-07T11:10:51;19.50;64.50
78345;DHT22;67620;51.134;6.548;2023-05-07T11:13:18;19.60;64.90
78345;DHT22;67620;51.134;6.548;2023-05-07T11:15:46;19.60;63.70
78345;DHT22;67620;51.134;6.548;2023-05-07T11:18:14;19.50;63.10
78345;DHT22;67620;51.134;6.548;2023-05-07T11:26:06;19.50;64.10
78345;DHT22;67620;51.134;6.548;2023-05-07T11:28:41;19.60;63.40
78345;DHT22;67620;51.134;6.548;2023-05-07T11:31:08;19.60;65.10
78345;DHT22;67620;51.134;6.548;2023-05-07T11:33:34;19.60;63.50
78345;DHT22;67620;51.134;6.548;2023-05-07T11:36:00;19.60;64.00
78345;DHT22;67620;51.134;6.548;2023-05-07T11:38:28;19.60;64.20
78345;DHT22;67620;51.134;6.548;2023-05-07T11:40:56;19.60;64.50
78345;DHT22;67620;51.134;6.548;2023-05-07T11:43:22;19.70;63.90
78345;DHT22;67620;51.134;6.548;2023-05-07T11:45:48;19.70;64.70
78345;DHT22;67620;51.134;6.548;2023-05-07T11:48:15;19.70;65.00
78345;DHT22;67620;51.134;6.548;2023-05-07T11:50:51;19.70;64.70
78345;DHT22;67620;51.134;6.548;2023-05-07T11:53:18;19.70;64.40
78345;DHT22;67620;51.134;6.548;2023-05-07T11:55:45;19.70;63.20
78345;DHT22;67620;51.134;6.548;2023-05-07T11:58:12;19.70;62.90
78345;DHT22;67620;51.134;6.548;2023-05-07T12:00:52;19.70;63.20
78345;DHT22;67620;51.134;6.548;2023-05-07T12:03:18;19.70;62.60
78345;DHT22;67620;51.134;6.548;2023-05-07T12:05:45;19.70;63.90
78345;DHT22;67620;51.134;6.548;2023-05-07T12:08:18;19.70;64.80
78345;DHT22;67620;51.134;6.548;2023-05-07T12:10:44;19.70;62.80
78345;DHT22;67620;51.134;6.548;2023-05-07T12:13:17;19.70;63.00
78345;DHT22;67620;51.134;6.548;2023-05-07T12:15:43;19.70;63.60
78345;DHT22;67620;51.134;6.548;2023-05-07T12:18:09;19.70;63.80
78345;DHT22;67620;51.134;6.548;2023-05-07T12:20:36;19.70;62.80
78345;DHT22;67620;51.134;6.548;2023-05-07T12:23:02;19.70;62.80
78345;DHT22;67620;51.134;6.548;2023-05-07T12:25:31;19.70;63.60
78345;DHT22;67620;51.134;6.548;2023-05-07T12:27:57;19.70;63.90
78345;DHT22;67620;51.134;6.548;2023-05-07T12:30:25;19.70;63.30
78345;DHT22;67620;51.134;6.548;2023-05-07T12:32:55;19.70;63.10
78345;DHT22;67620;51.134;6.548;2023-05-07T12:35:31;19.70;63.80
78345;DHT22;67620;51.134;6.548;2023-05-07T12:38:00;19.80;63.20
78345;DHT22;67620;51.134;6.548;2023-05-07T12:40:49;19.80;63.40
78345;DHT22;67620;51.134;6.548;2023-05-07T12:43:19;19.80;63.60
78345;DHT22;67620;51.134;6.548;2023-05-07T12:45:47;19.80;63.30
78345;DHT22;67620;51.134;6.548;2023-05-07T12:48:13;19.80;63.30
78345;DHT22;67620;51.134;6.548;2023-05-07T12:50:39;19.80;63.90
78345;DHT22;67620;51.134;6.548;2023-05-07T12:53:06;19.90;63.50
78345;DHT22;67620;51.134;6.548;2023-05-07T12:55:46;19.90;63.50
78345;DHT22;67620;51.134;6.548;2023-05-07T12:58:29;19.90;62.70
78345;DHT22;67620;51.134;6.548;2023-05-07T13:00:56;19.80;62.20
78345;DHT22;67620;51.134;6.548;2023-05-07T13:03:30;19.90;61.60
78345;DHT22;67620;51.134;6.548;2023-05-07T13:06:00;19.90;61.30
78345;DHT22;67620;51.134;6.548;2023-05-07T13:08:37;19.90;61.00
78345;DHT22;67620;51.134;6.548;2023-05-07T13:11:04;19.90;61.20
78345;DHT22;67620;51.134;6.548;2023-05-07T13:13:34;19.90;62.50
78345;DHT22;67620;51.134;6.548;2023-05-07T13:16:01;19.90;63.00
78345;DHT22;67620;51.134;6.548;2023-05-07T13:18:28;19.90;61.90
78345;DHT22;67620;51.134;6.548;2023-05-07T13:20:54;19.90;62.10
78345;DHT22;67620;51.134;6.548;2023-05-07T13:23:19;19.90;62.30
78345;DHT22;67620;51.134;6.548;2023-05-07T13:25:45;19.90;62.20
78345;DHT22;67620;51.134;6.548;2023-05-07T13:28:11;19.90;61.80
78345;DHT22;67620;51.134;6.548;2023-05-07T13:30:37;19.90;62.00
78345;DHT22;67620;51.134;6.548;2023-05-07T13:33:02;19.80;62.80
78345;DHT22;67620;51.134;6.548;2023-05-07T13:35:28;19.80;63.20
78345;DHT22;67620;51.134;6.548;2023-05-07T13:37:54;19.80;63.70
78345;DHT22;67620;51.134;6.548;2023-05-07T13:40:21;19.80;64.20
78345;DHT22;67620;51.134;6.548;2023-05-07T13:42:47;19.80;64.60
78345;DHT22;67620;51.134;6.548;2023-05-07T13:45:12;19.80;64.50
78345;DHT22;67620;51.134;6.548;2023-05-07T13:47:40;19.80;64.60
78345;DHT22;67620;51.134;6.548;2023-05-07T13:50:07;19.70;64.70
78345;DHT22;67620;51.134;6.548;2023-05-07T13:52:32;19.70;65.00
78345;DHT22;67620;51.134;6.548;2023-05-07T13:54:58;19.70;65.20
78345;DHT22;67620;51.134;6.548;2023-05-07T13:57:24;19.70;65.50
78345;DHT22;67620;51.134;6.548;2023-05-07T13:59:50;19.70;64.90
78345;DHT22;67620;51.134;6.548;2023-05-07T14:02:15;19.70;65.40
78345;DHT22;67620;51.134;6.548;2023-05-07T14:04:41;19.60;66.60
78345;DHT22;67620;51.134;6.548;2023-05-07T14:07:06;19.50;65.50
78345;DHT22;67620;51.134;6.548;2023-05-07T14:09:32;19.50;67.50
78345;DHT22;67620;51.134;6.548;2023-05-07T14:11:58;19.40;68.20
78345;DHT22;67620;51.134;6.548;2023-05-07T14:14:24;19.40;68.80
78345;DHT22;67620;51.134;6.548;2023-05-07T14:16:50;19.40;69.50
78345;DHT22;67620;51.134;6.548;2023-05-07T14:19:15;19.40;69.40
78345;DHT22;67620;51.134;6.548;2023-05-07T14:21:41;19.30;69.00
78345;DHT22;67620;51.134;6.548;2023-05-07T14:24:07;19.20;69.50
78345;DHT22;67620;51.134;6.548;2023-05-07T14:26:34;19.20;69.80
78345;DHT22;67620;51.134;6.548;2023-05-07T14:29:00;19.20;69.00
78345;DHT22;67620;51.134;6.548;2023-05-07T14:31:26;19.20;66.70
78345;DHT22;67620;51.134;6.548;2023-05-07T14:33:51;19.20;64.80
78345;DHT22;67620;51.134;6.548;2023-05-07T14:36:18;19.30;65.50
78345;DHT22;67620;51.134;6.548;2023-05-07T14:38:45;19.30;67.60
78345;DHT22;67620;51.134;6.548;2023-05-07T14:41:11;19.20;68.80
78345;DHT22;67620;51.134;6.548;2023-05-07T14:43:36;19.20;70.90
78345;DHT22;67620;51.134;6.548;2023-05-07T14:46:02;19.20;71.50
78345;DHT22;67620;51.134;6.548;2023-05-07T14:48:27;19.20;71.90
78345;DHT22;67620;51.134;6.548;2023-05-07T14:50:53;19.20;72.30
78345;DHT22;67620;51.134;6.548;2023-05-07T14:53:18;19.20;72.60
78345;DHT22;67620;51.134;6.548;2023-05-07T14:55:44;19.20;73.40
78345;DHT22;67620;51.134;6.548;2023-05-07T14:58:10;19.20;73.30
78345;DHT22;67620;51.134;6.548;2023-05-07T15:00:36;19.10;73.50
78345;DHT22;67620;51.134;6.548;2023-05-07T15:03:07;19.10;73.50
78345;DHT22;67620;51.134;6.548;2023-05-07T15:05:33;19.10;73.10
78345;DHT22;67620;51.134;6.548;2023-05-07T15:07:58;19.10;73.80
78345;DHT22;67620;51.134;6.548;2023-05-07T15:10:24;19.10;73.10
78345;DHT22;67620;51.134;6.548;2023-05-07T15:12:50;19.10;73.00
78345;DHT22;67620;51.134;6.548;2023-05-07T15:15:15;19.10;73.90
78345;DHT22;67620;51.134;6.548;2023-05-07T15:17:41;19.10;74.10
78345;DHT22;67620;51.134;6.548;2023-05-07T15:20:07;19.10;73.80
78345;DHT22;67620;51.134;6.548;2023-05-07T15:22:33;19.10;74.80
78345;DHT22;67620;51.134;6.548;2023-05-07T15:24:58;19.10;74.70
78345;DHT22;67620;51.134;6.548;2023-05-07T15:27:24;19.10;75.30
78345;DHT22;67620;51.134;6.548;2023-05-07T15:29:50;19.10;74.70
78345;DHT22;67620;51.134;6.548;2023-05-07T15:32:15;19.10;74.00
78345;DHT22;67620;51.134;6.548;2023-05-07T15:34:41;19.10;74.60
78345;DHT22;67620;51.134;6.548;2023-05-07T15:37:07;19.10;74.70
78345;DHT22;67620;51.134;6.548;2023-05-07T15:39:32;19.10;74.50
78345;DHT22;67620;51.134;6.548;2023-05-07T15:41:58;19.10;74.30